Time;durP1;ratioP1;P1;durP2;ratioP2;P2;SDS_P1;SDS_P2;PMS_P1;PMS_P2;Temp;Humidity;BMP_temperature;BMP_pressure;BME280_temperature;BME280_humidity;BME280_pressure;Samples;Min_cycle;Max_cycle;Signal;HPM_P1;HPM_P2
2022/05/08 00:00:34;;;;;;;3.92;2.63;;;13.40;66.90;;;;;;5006310;28;20469;-79
2022/05/08 00:02:59;;;;;;;3.78;2.67;;;13.40;67.10;;;;;;5006055;28;20038;-78
2022/05/08 00:05:25;;;;;;;4.82;2.65;;;13.30;67.30;;;;;;4988870;28;20041;-78
2022/05/08 00:07:50;;;;;;;4.63;3.05;;;13.20;67.50;;;;;;5003184;28;20044;-79
2022/05/08 00:10:16;;;;;;;5.32;2.80;;;13.20;67.60;;;;;;4993463;28;20084;-78
2022/05/08 00:12:42;;;;;;;3.10;2.20;;;13.20;67.70;;;;;;4970099;28;20049;-78
2022/05/08 00:15:07;;;;;;;4.05;2.47;;;13.20;67.70;;;;;;4995734;28;20122;-78
2022/05/08 00:17:34;;;;;;;3.75;2.60;;;13.20;67.80;;;;;;4992458;28;20120;-78
2022/05/08 00:20:01;;;;;;;3.63;2.67;;;13.10;67.70;;;;;;4998859;28;20677;-78
2022/05/08 00:22:26;;;;;;;3.17;2.88;;;13.10;67.90;;;;;;5001987;28;20041;-78
2022/05/08 00:24:52;;;;;;;4.15;2.22;;;13.10;68.00;;;;;;4996623;28;20037;-78
2022/05/08 00:27:17;;;;;;;4.38;2.83;;;13.00;67.90;;;;;;4971954;28;20060;-78
2022/05/08 00:29:43;;;;;;;3.20;1.80;;;13.00;68.10;;;;;;4986072;28;20022;-79
2022/05/08 00:32:08;;;;;;;2.45;2.17;;;12.90;69.00;;;;;;4984132;28;20112;-78
2022/05/08 00:34:34;;;;;;;3.95;2.05;;;12.90;68.50;;;;;;4992723;28;20052;-78
2022/05/08 00:36:59;;;;;;;3.08;2.30;;;12.80;68.60;;;;;;4999611;28;20096;-78
2022/05/08 00:39:25;;;;;;;4.60;2.63;;;12.80;68.60;;;;;;5009486;28;20030;-78
2022/05/08 00:41:50;;;;;;;2.65;1.92;;;12.80;68.80;;;;;;5011318;28;20033;-79
2022/05/08 00:44:16;;;;;;;5.45;2.25;;;12.80;68.80;;;;;;5001287;28;20030;-78
2022/05/08 00:46:41;;;;;;;2.97;1.98;;;12.70;68.80;;;;;;4976472;28;20068;-78
2022/05/08 00:49:07;;;;;;;2.75;2.20;;;12.70;68.90;;;;;;4999170;28;20034;-78
2022/05/08 00:51:33;;;;;;;3.55;2.33;;;12.70;69.00;;;;;;4976864;28;20041;-79
2022/05/08 00:54:00;;;;;;;3.95;2.47;;;12.60;69.20;;;;;;4981994;28;20064;-79
2022/05/08 00:56:26;;;;;;;3.42;2.20;;;12.60;69.40;;;;;;4965853;28;20492;-78
2022/05/08 00:58:52;;;;;;;2.92;2.17;;;12.50;69.60;;;;;;4996205;28;20100;-78
2022/05/08 01:01:18;;;;;;;2.80;2.28;;;12.50;69.60;;;;;;4996967;28;20037;-78
2022/05/08 01:03:46;;;;;;;2.55;2.30;;;12.50;69.70;;;;;;4975718;28;20048;-79
2022/05/08 01:06:16;;;;;;;4.20;2.25;;;12.50;69.80;;;;;;4992489;28;20048;-79
2022/05/08 01:08:43;;;;;;;2.50;2.30;;;12.50;69.90;;;;;;5000648;28;20035;-79
2022/05/08 01:11:09;;;;;;;2.55;2.35;;;12.50;69.80;;;;;;4980789;28;20041;-79
2022/05/08 01:13:36;;;;;;;4.75;2.30;;;12.50;70.10;;;;;;5014769;28;20113;-79
2022/05/08 01:16:01;;;;;;;3.30;1.83;;;12.50;70.00;;;;;;5004931;28;20037;-78
2022/05/08 01:18:27;;;;;;;2.30;2.10;;;12.50;70.10;;;;;;4982405;28;20035;-79
2022/05/08 01:20:53;;;;;;;2.97;1.95;;;12.40;70.00;;;;;;5004949;28;20034;-79
2022/05/08 01:23:19;;;;;;;4.80;2.38;;;12.40;70.10;;;;;;5011720;28;20665;-78
2022/05/08 01:25:46;;;;;;;4.18;2.30;;;12.50;70.10;;;;;;5007241;28;20037;-78
2022/05/08 01:28:12;;;;;;;4.97;2.30;;;12.40;70.10;;;;;;5008447;28;20049;-78
2022/05/08 01:30:42;;;;;;;4.63;2.42;;;12.40;70.10;;;;;;5004321;28;20033;-79
2022/05/08 01:33:07;;;;;;;2.85;2.10;;;12.40;70.30;;;;;;4987371;28;20045;-79
2022/05/08 01:35:34;;;;;;;3.63;2.38;;;12.30;71.00;;;;;;5010483;28;20617;-78
2022/05/08 01:37:59;;;;;;;4.13;2.63;;;12.30;70.20;;;;;;5004263;28;20034;-78
2022/05/08 01:40:25;;;;;;;6.50;3.42;;;12.20;70.40;;;;;;4998540;28;20044;-78
2022/05/08 01:42:51;;;;;;;2.63;2.42;;;12.20;70.60;;;;;;4998394;28;20042;-78
2022/05/08 01:45:16;;;;;;;4.85;2.80;;;12.10;70.80;;;;;;4989557;28;20369;-79
2022/05/08 01:50:26;;;;;;;4.55;2.63;;;12.10;71.10;;;;;;5005796;28;20131;-78
2022/05/08 01:52:51;;;;;;;5.25;2.38;;;12.10;71.10;;;;;;5002369;28;20165;-78
2022/05/08 01:55:17;;;;;;;4.43;2.97;;;12.00;71.00;;;;;;4970092;28;20124;-78
2022/05/08 01:57:43;;;;;;;2.88;2.25;;;12.00;71.10;;;;;;4988477;28;20029;-78
2022/05/08 02:00:09;;;;;;;2.88;2.55;;;12.00;71.20;;;;;;4997927;28;20046;-78
2022/05/08 02:02:34;;;;;;;4.97;2.47;;;11.90;71.20;;;;;;4999456;28;20040;-78
2022/05/08 02:05:01;;;;;;;3.80;2.80;;;11.90;71.30;;;;;;5002292;28;20427;-79
2022/05/08 02:07:26;;;;;;;2.72;2.40;;;11.90;71.30;;;;;;5008863;28;20168;-79
2022/05/08 02:09:52;;;;;;;3.20;2.63;;;11.90;71.40;;;;;;4994012;28;20029;-78
2022/05/08 02:12:18;;;;;;;2.97;2.38;;;11.80;71.60;;;;;;5004803;28;20041;-78
2022/05/08 02:14:43;;;;;;;3.25;2.95;;;11.70;71.70;;;;;;5007624;28;20038;-78
2022/05/08 02:17:09;;;;;;;3.47;2.67;;;11.80;71.90;;;;;;4996220;28;20057;-78
2022/05/08 02:19:34;;;;;;;2.80;2.50;;;11.70;72.00;;;;;;5021271;28;20030;-79
2022/05/08 02:22:00;;;;;;;3.67;2.53;;;11.70;72.10;;;;;;4989001;28;20033;-78
2022/05/08 02:24:25;;;;;;;5.13;3.10;;;11.70;72.20;;;;;;5010356;28;20149;-78
2022/05/08 02:26:51;;;;;;;2.60;2.40;;;11.70;72.20;;;;;;4976532;28;20134;-79
2022/05/08 02:29:16;;;;;;;2.85;2.65;;;11.60;72.30;;;;;;5005766;28;20061;-78
2022/05/08 02:31:42;;;;;;;3.63;2.30;;;11.60;72.40;;;;;;5019584;28;20065;-79
2022/05/08 02:34:07;;;;;;;3.20;2.58;;;11.60;72.50;;;;;;5013610;28;20053;-78
2022/05/08 02:36:33;;;;;;;3.25;2.17;;;11.60;72.70;;;;;;5008170;28;20026;-78
2022/05/08 02:38:59;;;;;;;3.22;2.42;;;11.50;72.60;;;;;;5005320;28;20037;-79
2022/05/08 02:41:24;;;;;;;4.93;2.33;;;11.50;72.60;;;;;;4978721;28;20051;-78
2022/05/08 02:43:50;;;;;;;2.70;2.10;;;11.50;72.70;;;;;;5018354;28;20029;-78
2022/05/08 02:46:15;;;;;;;4.47;2.58;;;11.50;72.70;;;;;;5006762;28;20836;-78
2022/05/08 02:48:41;;;;;;;3.15;2.33;;;11.50;72.70;;;;;;4996122;28;20530;-78
2022/05/08 02:51:07;;;;;;;3.63;2.70;;;11.50;72.80;;;;;;5005988;28;20100;-79
2022/05/08 02:53:33;;;;;;;3.40;2.38;;;11.50;72.80;;;;;;4988232;28;20637;-78
2022/05/08 02:58:42;;;;;;;3.88;2.70;;;11.40;72.90;;;;;;5006808;28;20044;-78
2022/05/08 03:01:08;;;;;;;3.97;2.80;;;11.40;72.90;;;;;;4999762;28;20046;-78
2022/05/08 03:03:34;;;;;;;3.15;2.00;;;11.40;73.00;;;;;;4969519;28;20041;-78
2022/05/08 03:06:00;;;;;;;3.55;2.55;;;11.40;73.00;;;;;;5002136;28;20026;-77
2022/05/08 03:08:25;;;;;;;3.92;2.70;;;11.40;73.10;;;;;;5000889;28;20041;-78
2022/05/08 03:13:39;;;;;;;2.90;2.42;;;11.40;73.20;;;;;;5002887;28;20114;-79
2022/05/08 03:16:05;;;;;;;3.03;2.40;;;11.40;73.30;;;;;;4968923;28;20040;-78
2022/05/08 03:18:31;;;;;;;4.30;2.72;;;11.30;73.10;;;;;;4978357;28;20046;-78
2022/05/08 03:20:57;;;;;;;3.35;2.65;;;11.40;73.20;;;;;;4988571;28;20033;-78
2022/05/08 03:23:22;;;;;;;2.28;2.08;;;11.30;73.10;;;;;;5003165;28;20044;-78
2022/05/08 03:25:48;;;;;;;3.25;2.47;;;11.30;73.20;;;;;;4962380;28;20041;-78
2022/05/08 03:28:15;;;;;;;4.65;2.28;;;11.30;73.40;;;;;;4997775;28;20030;-78
2022/05/08 03:30:41;;;;;;;3.53;2.38;;;11.30;73.30;;;;;;5009091;28;20545;-77
2022/05/08 03:33:08;;;;;;;3.42;2.30;;;11.30;73.30;;;;;;4989842;28;20029;-78
2022/05/08 03:35:34;;;;;;;4.28;2.78;;;11.30;73.30;;;;;;5005869;28;20041;-78
2022/05/08 03:38:00;;;;;;;2.88;2.25;;;11.20;73.30;;;;;;5007513;28;20038;-78
2022/05/08 03:40:26;;;;;;;3.33;2.38;;;11.20;73.40;;;;;;4996204;28;20495;-77
2022/05/08 03:42:52;;;;;;;3.60;2.47;;;11.20;73.30;;;;;;5015951;28;20048;-78
2022/05/08 03:45:18;;;;;;;3.13;2.55;;;11.20;73.50;;;;;;5001459;28;20396;-77
2022/05/08 03:47:44;;;;;;;3.25;2.50;;;11.20;73.50;;;;;;4955721;28;20044;-77
2022/05/08 03:50:09;;;;;;;3.10;2.35;;;11.10;73.40;;;;;;4994589;28;20037;-78
2022/05/08 03:52:35;;;;;;;4.78;2.42;;;11.10;74.40;;;;;;5002234;28;20041;-78
2022/05/08 03:55:02;;;;;;;4.30;2.33;;;11.10;73.80;;;;;;4997858;28;20046;-78
2022/05/08 03:57:27;;;;;;;2.83;2.47;;;11.00;73.90;;;;;;5002955;28;20069;-78
2022/05/08 03:59:53;;;;;;;3.33;2.20;;;11.00;74.10;;;;;;4994158;28;20962;-78
2022/05/08 04:02:18;;;;;;;2.40;2.17;;;11.00;74.20;;;;;;4994162;28;20607;-77
2022/05/08 04:04:44;;;;;;;2.88;2.33;;;11.00;74.20;;;;;;4999499;28;20038;-78
2022/05/08 04:07:09;;;;;;;4.05;3.15;;;10.90;74.20;;;;;;4999424;28;20457;-78
2022/05/08 04:09:35;;;;;;;2.58;2.38;;;10.90;74.10;;;;;;5003825;28;20037;-78
2022/05/08 04:12:00;;;;;;;3.35;2.67;;;10.90;74.20;;;;;;4986471;28;20018;-78
2022/05/08 04:14:26;;;;;;;4.30;2.80;;;10.90;74.30;;;;;;5004332;28;20037;-78
2022/05/08 04:16:51;;;;;;;2.92;2.15;;;10.90;74.30;;;;;;5007431;28;20041;-78
2022/05/08 04:19:17;;;;;;;3.92;2.30;;;10.90;74.40;;;;;;4999617;28;20033;-77
2022/05/08 04:21:43;;;;;;;4.40;2.67;;;10.90;74.30;;;;;;4997955;28;20044;-77
2022/05/08 04:24:17;;;;;;;5.97;2.42;;;10.90;74.40;;;;;;4988003;28;20127;-77
2022/05/08 04:26:43;;;;;;;3.88;3.10;;;10.90;74.50;;;;;;5001367;28;20037;-78
2022/05/08 04:29:08;;;;;;;3.80;2.40;;;10.90;74.60;;;;;;5004009;28;20038;-78
2022/05/08 04:31:34;;;;;;;3.58;2.55;;;10.90;74.70;;;;;;5008257;28;20040;-78
2022/05/08 04:34:01;;;;;;;3.25;2.35;;;10.90;74.80;;;;;;4966864;28;20034;-77
2022/05/08 04:36:26;;;;;;;3.55;2.40;;;10.90;74.80;;;;;;5002945;28;20124;-78
2022/05/08 04:38:52;;;;;;;2.42;2.22;;;10.90;74.80;;;;;;5002192;28;20626;-77
2022/05/08 04:41:18;;;;;;;3.28;2.55;;;10.90;74.90;;;;;;4969142;28;20423;-77
2022/05/08 04:43:43;;;;;;;8.73;2.65;;;10.90;74.80;;;;;;5004529;28;20483;-78
2022/05/08 04:46:10;;;;;;;5.80;2.45;;;10.90;74.90;;;;;;4996403;28;20065;-77
2022/05/08 04:48:37;;;;;;;2.80;2.60;;;10.90;74.90;;;;;;4996596;28;20496;-77
2022/05/08 04:51:02;;;;;;;2.30;2.10;;;11.00;75.10;;;;;;4968402;28;20072;-78
2022/05/08 04:53:28;;;;;;;3.58;2.80;;;11.00;75.20;;;;;;4994123;28;20433;-78
2022/05/08 04:55:53;;;;;;;4.15;2.72;;;11.00;75.30;;;;;;4989740;28;20403;-78
2022/05/08 04:58:19;;;;;;;4.90;2.88;;;11.00;75.40;;;;;;4979703;28;20071;-78
2022/05/08 05:00:44;;;;;;;2.30;2.10;;;11.00;75.50;;;;;;4999022;28;20041;-78
2022/05/08 05:03:10;;;;;;;4.05;1.92;;;11.00;75.50;;;;;;4982849;28;20547;-78
2022/05/08 05:05:36;;;;;;;2.80;2.38;;;11.10;75.30;;;;;;5002229;28;20085;-78
2022/05/08 05:08:01;;;;;;;3.58;3.22;;;11.10;75.20;;;;;;4977669;28;20535;-78
2022/05/08 05:10:27;;;;;;;5.82;4.72;;;11.20;75.20;;;;;;4988162;28;20056;-78
2022/05/08 05:12:53;;;;;;;5.20;3.65;;;11.20;75.40;;;;;;4967624;28;20034;-78
2022/05/08 05:15:19;;;;;;;3.80;3.40;;;11.30;75.60;;;;;;4999636;28;20044;-78
2022/05/08 05:17:44;;;;;;;3.40;2.58;;;11.20;75.70;;;;;;4985350;28;20042;-78
2022/05/08 05:20:10;;;;;;;5.50;2.90;;;11.30;75.70;;;;;;4987468;28;20168;-78
2022/05/08 05:22:36;;;;;;;3.65;3.17;;;11.30;75.50;;;;;;4981906;28;20129;-78
2022/05/08 05:25:03;;;;;;;3.80;3.30;;;11.40;75.40;;;;;;4981775;28;20081;-78
2022/05/08 05:27:28;;;;;;;4.00;2.42;;;11.40;75.30;;;;;;5002388;28;20046;-78
2022/05/08 05:29:54;;;;;;;4.82;3.22;;;11.50;75.40;;;;;;5012329;28;20033;-78
2022/05/08 05:32:19;;;;;;;3.40;2.78;;;11.50;75.30;;;;;;4993762;28;20721;-78
2022/05/08 05:34:45;;;;;;;3.78;3.20;;;11.60;75.30;;;;;;4999349;28;20068;-78
2022/05/08 05:37:10;;;;;;;4.13;3.28;;;11.60;75.10;;;;;;4992546;28;20062;-78
2022/05/08 05:39:36;;;;;;;6.13;2.95;;;11.70;75.10;;;;;;4996121;28;20092;-78
2022/05/08 05:42:02;;;;;;;4.75;3.40;;;11.70;75.20;;;;;;5002851;28;20488;-78
2022/05/08 05:44:27;;;;;;;5.40;3.17;;;11.80;75.20;;;;;;5003734;28;20046;-78
2022/05/08 05:49:38;;;;;;;10.43;4.57;;;11.90;75.40;;;;;;5008746;28;20096;-77
2022/05/08 05:52:06;;;;;;;5.88;3.15;;;12.00;75.30;;;;;;5002223;28;20042;-78
2022/05/08 05:54:32;;;;;;;4.28;3.88;;;12.00;75.40;;;;;;5006747;28;20140;-78
2022/05/08 05:56:57;;;;;;;3.60;3.08;;;12.10;75.40;;;;;;4974777;28;20049;-78
2022/05/08 05:59:23;;;;;;;5.22;3.83;;;12.20;75.40;;;;;;4993444;28;20044;-78
2022/05/08 06:01:48;;;;;;;4.90;4.05;;;12.20;75.30;;;;;;4992775;28;20501;-78
2022/05/08 06:04:14;;;;;;;4.93;3.92;;;12.30;75.50;;;;;;4991639;28;20092;-78
2022/05/08 06:06:39;;;;;;;4.10;3.70;;;12.40;75.50;;;;;;4980837;28;20037;-78
2022/05/08 06:09:05;;;;;;;3.83;3.42;;;12.50;75.60;;;;;;4999642;28;20330;-78
2022/05/08 06:11:31;;;;;;;4.97;3.75;;;12.60;75.50;;;;;;5002832;28;20038;-78
2022/05/08 06:13:56;;;;;;;6.47;3.78;;;12.70;75.50;;;;;;4998143;28;20038;-77
2022/05/08 06:16:22;;;;;;;4.13;3.72;;;12.80;75.50;;;;;;4984384;28;20125;-77
2022/05/08 06:18:47;;;;;;;4.97;3.10;;;12.90;75.60;;;;;;4986172;28;20108;-78
2022/05/08 06:21:13;;;;;;;7.68;3.50;;;13.00;75.40;;;;;;5000049;28;20034;-78
2022/05/08 06:23:38;;;;;;;6.88;3.42;;;13.10;75.20;;;;;;4985176;28;20044;-77
2022/05/08 06:26:04;;;;;;;4.10;3.70;;;13.20;75.20;;;;;;4960671;28;20034;-77
2022/05/08 06:28:30;;;;;;;3.60;3.30;;;13.30;75.30;;;;;;4977178;28;20036;-77
2022/05/08 06:30:56;;;;;;;4.20;3.40;;;13.50;75.40;;;;;;5003164;28;20091;-77
2022/05/08 06:33:21;;;;;;;5.57;3.47;;;13.60;75.10;;;;;;4983972;28;20112;-78
2022/05/08 06:35:47;;;;;;;8.27;3.03;;;13.70;75.00;;;;;;5003835;28;20458;-79
2022/05/08 06:38:12;;;;;;;3.63;3.33;;;13.80;74.70;;;;;;5002526;28;20077;-78
2022/05/08 06:40:39;;;;;;;3.45;2.72;;;13.90;74.50;;;;;;4976920;28;20753;-79
2022/05/08 06:43:05;;;;;;;5.18;2.90;;;14.00;74.30;;;;;;4979448;28;20543;-78
2022/05/08 06:45:30;;;;;;;8.63;2.72;;;14.20;74.00;;;;;;5013912;28;20055;-78
2022/05/08 06:47:56;;;;;;;5.68;3.42;;;14.30;73.80;;;;;;4989261;28;20033;-79
2022/05/08 06:50:22;;;;;;;5.82;2.92;;;14.50;73.60;;;;;;5007275;28;20045;-78
2022/05/08 06:52:47;;;;;;;5.82;3.17;;;14.60;73.50;;;;;;5009229;28;20029;-78
2022/05/08 06:55:13;;;;;;;6.40;3.08;;;14.70;73.40;;;;;;5010648;28;20044;-78
2022/05/08 06:57:39;;;;;;;3.72;2.70;;;14.90;73.30;;;;;;5007189;28;20044;-78
2022/05/08 07:02:50;;;;;;;4.20;3.00;;;15.20;72.90;;;;;;4991968;28;20120;-79
2022/05/08 07:05:16;;;;;;;4.07;2.72;;;15.30;72.70;;;;;;4985962;28;20061;-78
2022/05/08 07:07:42;;;;;;;3.50;2.53;;;15.50;72.60;;;;;;5003647;28;20080;-78
2022/05/08 07:10:08;;;;;;;3.10;2.55;;;15.70;72.40;;;;;;5002696;28;20490;-78
2022/05/08 07:12:36;;;;;;;2.92;2.70;;;15.80;72.00;;;;;;5004170;28;20037;-78
2022/05/08 07:15:04;;;;;;;5.18;3.03;;;16.00;71.80;;;;;;4991824;28;20060;-78
2022/05/08 07:17:30;;;;;;;3.58;2.85;;;16.10;71.60;;;;;;5002827;28;20072;-78
2022/05/08 07:19:56;;;;;;;4.25;2.83;;;16.30;71.30;;;;;;5019081;28;20058;-78
2022/05/08 07:22:22;;;;;;;3.25;2.72;;;16.40;70.90;;;;;;4998954;28;20511;-78
2022/05/08 07:24:47;;;;;;;3.65;2.85;;;16.60;70.70;;;;;;4996673;28;20030;-79
2022/05/08 07:27:13;;;;;;;4.47;2.67;;;16.70;70.40;;;;;;5021791;28;20045;-78
2022/05/08 07:29:42;;;;;;;4.57;2.90;;;16.90;70.30;;;;;;5015106;28;20041;-79
2022/05/08 07:32:08;;;;;;;2.75;2.50;;;17.00;70.10;;;;;;5009178;28;20034;-78
2022/05/08 07:37:18;;;;;;;4.45;2.80;;;17.30;69.40;;;;;;5003641;28;20048;-78
2022/05/08 07:39:43;;;;;;;2.83;2.50;;;17.40;69.00;;;;;;4975501;28;20030;-78
2022/05/08 07:42:09;;;;;;;3.17;2.50;;;17.50;68.60;;;;;;5006041;28;20365;-78
2022/05/08 07:44:35;;;;;;;5.72;3.00;;;17.60;68.50;;;;;;5007585;28;20040;-78
2022/05/08 07:47:00;;;;;;;3.00;2.70;;;17.60;68.10;;;;;;5003894;28;20095;-79
2022/05/08 07:49:26;;;;;;;5.60;2.50;;;17.70;67.80;;;;;;4982529;28;20128;-78
2022/05/08 07:51:52;;;;;;;2.78;2.58;;;17.70;67.50;;;;;;4967588;28;20091;-78
2022/05/08 07:54:17;;;;;;;3.92;2.72;;;17.80;67.20;;;;;;5008002;28;20137;-80
2022/05/08 07:56:43;;;;;;;3.25;2.50;;;17.80;66.90;;;;;;5009706;28;20131;-79
2022/05/08 07:59:09;;;;;;;3.85;3.10;;;17.90;66.60;;;;;;5004772;28;20531;-78
2022/05/08 08:01:34;;;;;;;4.20;3.22;;;17.90;66.40;;;;;;5002074;28;20068;-79
2022/05/08 08:04:01;;;;;;;4.53;2.83;;;18.00;66.20;;;;;;4992239;28;20041;-78
2022/05/08 08:06:27;;;;;;;4.30;3.17;;;18.10;65.80;;;;;;4997292;28;20038;-79
2022/05/08 08:08:53;;;;;;;6.28;3.83;;;18.20;65.30;;;;;;4995626;28;20045;-79
2022/05/08 08:11:24;;;;;;;4.43;2.85;;;18.30;65.30;;;;;;4977353;28;20043;-79
2022/05/08 08:13:50;;;;;;;9.77;2.63;;;18.40;65.00;;;;;;4976302;28;20038;-78
2022/05/08 08:16:16;;;;;;;3.85;2.30;;;18.60;64.80;;;;;;5017547;28;20153;-79
2022/05/08 08:18:43;;;;;;;6.18;2.60;;;18.70;64.40;;;;;;4997492;28;20437;-79
2022/05/08 08:21:12;;;;;;;4.63;2.45;;;18.80;64.10;;;;;;5002773;28;20053;-79
2022/05/08 08:23:39;;;;;;;4.85;2.45;;;19.00;63.60;;;;;;5006704;28;20103;-79
2022/05/08 08:26:04;;;;;;;3.28;2.80;;;19.10;63.40;;;;;;4997739;28;20234;-79
2022/05/08 08:28:30;;;;;;;3.10;2.10;;;19.20;63.20;;;;;;5007452;28;20038;-79
2022/05/08 08:30:55;;;;;;;3.03;2.03;;;19.30;62.90;;;;;;5006314;28;20064;-78
2022/05/08 08:33:22;;;;;;;5.38;2.80;;;19.40;62.70;;;;;;4993501;28;20036;-79
2022/05/08 08:35:47;;;;;;;3.20;2.80;;;19.50;62.60;;;;;;5002656;28;20040;-79
2022/05/08 08:38:14;;;;;;;2.00;1.80;;;19.60;62.40;;;;;;5001438;28;20326;-79
2022/05/08 08:40:40;;;;;;;2.30;2.08;;;19.80;62.30;;;;;;5000664;28;20403;-79
2022/05/08 08:43:07;;;;;;;3.97;2.33;;;19.90;62.00;;;;;;4990014;28;20030;-79
2022/05/08 08:48:27;;;;;;;2.67;2.47;;;20.30;61.50;;;;;;5000408;28;20036;-79
2022/05/08 08:50:54;;;;;;;3.40;2.15;;;20.60;61.10;;;;;;5003151;28;20052;-79
2022/05/08 08:53:20;;;;;;;2.92;2.03;;;20.80;60.80;;;;;;5001051;28;20045;-79
2022/05/08 08:55:50;;;;;;;5.00;3.10;;;21.00;60.50;;;;;;4992047;28;20041;-79
2022/05/08 08:58:19;;;;;;;4.78;2.60;;;21.10;60.10;;;;;;4974279;28;20358;-78
2022/05/08 09:00:49;;;;;;;3.40;2.88;;;21.30;59.90;;;;;;4999475;28;20117;-78
2022/05/08 09:03:25;;;;;;;6.43;2.97;;;21.50;59.40;;;;;;4973219;28;20061;-79
2022/05/08 09:05:58;;;;;;;5.90;2.67;;;21.60;59.00;;;;;;4996906;28;20416;-79
2022/05/08 09:08:27;;;;;;;2.75;2.45;;;21.80;58.60;;;;;;5004746;28;20092;-79
2022/05/08 09:10:54;;;;;;;3.80;2.72;;;21.90;58.40;;;;;;4968316;28;20492;-79
2022/05/08 09:13:19;;;;;;;2.58;2.38;;;22.20;58.20;;;;;;4980983;28;20033;-79
2022/05/08 09:15:45;;;;;;;2.55;2.30;;;22.40;58.00;;;;;;4969678;28;20034;-79
2022/05/08 09:18:11;;;;;;;2.50;2.30;;;22.50;57.50;;;;;;5002358;28;20037;-79
2022/05/08 09:20:51;;;;;;;2.50;2.30;;;22.70;57.20;;;;;;5019925;28;20754;-79
2022/05/08 09:23:17;;;;;;;2.75;2.55;;;22.80;56.50;;;;;;4978953;28;20044;-79
2022/05/08 09:26:02;;;;;;;3.03;2.72;;;23.00;56.70;;;;;;4999853;28;20034;-79
2022/05/08 09:28:42;;;;;;;4.63;2.60;;;23.10;55.30;;;;;;4983838;28;20042;-79
2022/05/08 09:31:08;;;;;;;5.03;2.50;;;23.20;55.80;;;;;;4977890;28;20041;-79
2022/05/08 09:33:44;;;;;;;3.60;2.85;;;23.30;55.70;;;;;;4995064;28;20500;-79
2022/05/08 09:36:20;;;;;;;3.25;2.70;;;23.50;55.70;;;;;;4998453;28;20038;-78
2022/05/08 09:38:47;;;;;;;4.72;2.33;;;23.70;55.20;;;;;;4998423;28;20167;-79
2022/05/08 09:41:19;;;;;;;4.57;2.47;;;24.00;54.90;;;;;;4995165;28;20556;-78
2022/05/08 09:43:44;;;;;;;3.10;2.30;;;24.20;54.40;;;;;;4979990;28;20064;-78
2022/05/08 09:46:10;;;;;;;3.60;2.22;;;24.50;53.80;;;;;;4993980;28;20034;-79
2022/05/08 09:48:36;;;;;;;2.40;2.17;;;24.60;53.30;;;;;;4980738;28;20038;-79
2022/05/08 09:51:05;;;;;;;3.22;2.42;;;24.80;53.00;;;;;;4996186;28;20087;-79
2022/05/08 09:53:31;;;;;;;3.58;2.03;;;24.90;52.70;;;;;;5000482;28;20511;-79
2022/05/08 09:55:59;;;;;;;4.70;2.38;;;25.10;52.20;;;;;;4991138;28;20499;-79
2022/05/08 09:58:25;;;;;;;3.78;2.20;;;25.20;51.50;;;;;;4993220;28;20033;-79
2022/05/08 10:00:52;;;;;;;1.98;1.88;;;25.30;51.20;;;;;;4994408;28;20042;-79
2022/05/08 10:03:20;;;;;;;3.88;2.70;;;25.40;50.80;;;;;;4995781;28;20034;-78
2022/05/08 10:05:47;;;;;;;4.35;2.20;;;25.60;50.30;;;;;;4999536;28;20519;-79
2022/05/08 10:08:14;;;;;;;3.53;2.50;;;25.70;50.40;;;;;;5000561;28;20360;-79
2022/05/08 10:16:45;;;;;;;3.35;2.10;;;26.20;48.40;;;;;;4991042;28;20461;-78
2022/05/08 10:19:16;;;;;;;4.10;2.05;;;26.40;48.70;;;;;;4998411;28;20234;-78
2022/05/08 10:21:56;;;;;;;3.05;2.42;;;26.60;48.80;;;;;;4994102;28;20040;-79
2022/05/08 10:24:47;;;;;;;2.03;1.90;;;26.80;48.30;;;;;;4998685;28;20613;-79
2022/05/08 10:27:31;;;;;;;3.70;2.17;;;27.00;48.20;;;;;;4992087;28;20376;-79
2022/05/08 10:29:56;;;;;;;3.65;2.00;;;27.20;48.30;;;;;;4986558;28;20038;-78
2022/05/08 10:32:33;;;;;;;3.00;2.00;;;27.50;48.00;;;;;;4977881;28;20304;-79
2022/05/08 10:35:18;;;;;;;3.95;1.80;;;27.60;46.70;;;;;;4999860;28;20458;-78
2022/05/08 10:37:47;;;;;;;2.58;1.98;;;27.70;46.50;;;;;;5001661;28;20644;-79
2022/05/08 10:40:21;;;;;;;2.83;2.10;;;27.80;46.90;;;;;;4992754;28;20411;-78
2022/05/08 10:42:47;;;;;;;2.40;1.90;;;27.90;46.00;;;;;;5006755;28;20034;-78
2022/05/08 10:45:34;;;;;;;3.55;2.08;;;27.90;46.20;;;;;;4999713;28;20037;-78
2022/05/08 10:48:08;;;;;;;3.88;2.08;;;28.10;45.10;;;;;;4989128;28;20068;-79
2022/05/08 10:50:34;;;;;;;2.58;1.65;;;28.20;45.70;;;;;;4984472;28;20033;-78
2022/05/08 10:52:59;;;;;;;2.28;1.90;;;28.20;45.50;;;;;;4983978;28;20503;-78
2022/05/08 10:55:26;;;;;;;3.25;1.63;;;28.40;45.30;;;;;;4984607;28;20062;-79
2022/05/08 10:57:52;;;;;;;1.85;1.70;;;28.60;44.80;;;;;;5001717;28;20070;-79
2022/05/08 11:00:21;;;;;;;3.35;1.50;;;28.80;44.40;;;;;;4982571;28;20041;-78
2022/05/08 11:02:50;;;;;;;2.03;1.70;;;29.00;44.00;;;;;;5001149;28;20088;-79
2022/05/08 11:05:23;;;;;;;3.30;1.73;;;29.20;43.70;;;;;;5006245;28;20034;-79
2022/05/08 11:08:04;;;;;;;5.50;2.00;;;29.40;42.50;;;;;;4988173;28;20514;-78
2022/05/08 11:10:31;;;;;;;2.35;1.55;;;29.40;42.20;;;;;;4957670;28;20570;-79
2022/05/08 11:13:18;;;;;;;2.50;1.38;;;29.50;42.10;;;;;;5012882;28;20029;-78
2022/05/08 11:15:43;;;;;;;1.83;1.40;;;29.70;40.20;;;;;;5001998;28;20124;-79
2022/05/08 11:18:16;;;;;;;1.95;1.45;;;29.80;41.30;;;;;;4995200;28;20122;-79
2022/05/08 11:20:45;;;;;;;2.33;1.48;;;30.00;41.20;;;;;;4994413;28;20030;-79
2022/05/08 11:23:13;;;;;;;1.58;1.48;;;30.20;40.60;;;;;;4988715;28;20034;-79
2022/05/08 11:25:38;;;;;;;3.88;1.35;;;30.40;40.40;;;;;;4997902;28;20040;-78
2022/05/08 11:28:04;;;;;;;2.35;1.60;;;30.50;40.20;;;;;;4985686;28;20026;-79
2022/05/08 11:30:35;;;;;;;1.67;1.33;;;30.70;39.70;;;;;;4990536;28;20624;-78
2022/05/08 11:36:04;;;;;;;2.63;1.60;;;30.80;38.80;;;;;;4991323;28;20053;-79
2022/05/08 11:38:38;;;;;;;4.22;1.38;;;30.90;38.20;;;;;;5006008;28;20033;-79
2022/05/08 11:41:05;;;;;;;2.20;1.23;;;30.90;36.90;;;;;;4981163;28;20488;-78
2022/05/08 11:43:38;;;;;;;3.03;1.45;;;31.00;37.60;;;;;;4973619;28;20509;-78
2022/05/08 11:46:03;;;;;;;2.65;1.30;;;31.10;37.10;;;;;;4985609;28;20037;-79
2022/05/08 11:48:34;;;;;;;4.40;1.60;;;31.20;37.60;;;;;;5004748;28;20050;-79
2022/05/08 11:51:00;;;;;;;3.17;1.10;;;31.40;37.00;;;;;;4986340;28;20046;-79
2022/05/08 11:53:25;;;;;;;2.50;1.45;;;31.50;37.00;;;;;;5005334;28;20034;-79
2022/05/08 11:55:51;;;;;;;1.80;1.30;;;31.50;36.90;;;;;;5000143;28;20136;-79
2022/05/08 11:58:32;;;;;;;1.40;1.20;;;31.40;36.60;;;;;;4999845;28;20061;-79
2022/05/08 12:00:57;;;;;;;1.50;1.40;;;31.20;35.50;;;;;;4983590;28;20118;-79
2022/05/08 12:03:27;;;;;;;2.33;1.92;;;31.20;36.70;;;;;;4987695;28;20047;-79
2022/05/08 12:06:14;;;;;;;4.03;1.75;;;31.30;37.10;;;;;;4983319;28;20033;-79
2022/05/08 12:08:39;;;;;;;1.45;1.35;;;31.30;35.70;;;;;;4999825;28;20148;-79
2022/05/08 12:11:05;;;;;;;2.50;1.60;;;31.30;36.50;;;;;;5003515;28;20125;-79
2022/05/08 12:13:34;;;;;;;2.05;1.48;;;31.40;36.40;;;;;;5001707;28;20522;-79
2022/05/08 12:16:15;;;;;;;4.10;1.60;;;31.50;36.40;;;;;;5002118;28;20038;-79
2022/05/08 12:19:11;;;;;;;2.20;1.40;;;31.60;35.00;;;;;;4997532;28;20049;-79
2022/05/08 12:21:38;;;;;;;2.00;1.60;;;31.70;34.60;;;;;;4979723;28;20505;-79
2022/05/08 12:24:08;;;;;;;2.25;1.38;;;31.80;35.60;;;;;;4979497;28;20053;-79
2022/05/08 12:26:34;;;;;;;1.88;1.60;;;32.00;35.00;;;;;;4985322;28;20080;-78
2022/05/08 12:28:59;;;;;;;3.08;1.35;;;32.10;35.10;;;;;;4986022;28;20066;-79
2022/05/08 12:31:25;;;;;;;2.42;1.50;;;32.10;34.90;;;;;;4987773;28;20060;-78
2022/05/08 12:33:50;;;;;;;3.75;1.55;;;32.00;34.60;;;;;;4981581;28;20062;-81
2022/05/08 12:36:16;;;;;;;1.60;1.50;;;32.00;34.60;;;;;;4993873;28;20398;-79
2022/05/08 12:38:41;;;;;;;2.97;1.33;;;32.00;34.40;;;;;;5016294;28;20049;-79
2022/05/08 12:41:07;;;;;;;1.48;1.13;;;32.10;34.30;;;;;;4988345;28;20034;-79
2022/05/08 12:43:32;;;;;;;2.70;1.80;;;32.20;34.10;;;;;;5012186;28;20173;-79
2022/05/08 12:45:58;;;;;;;1.40;1.30;;;32.20;33.90;;;;;;4978208;28;20041;-79
2022/05/08 12:48:24;;;;;;;2.67;1.50;;;32.30;33.60;;;;;;4970775;28;20400;-79
2022/05/08 12:50:50;;;;;;;4.88;1.25;;;32.00;33.50;;;;;;4987763;28;20506;-78
2022/05/08 12:53:16;;;;;;;3.17;1.45;;;31.80;33.50;;;;;;5004022;28;20030;-79
2022/05/08 12:55:42;;;;;;;2.13;1.20;;;31.80;33.70;;;;;;4990345;28;20033;-79
2022/05/08 13:00:52;;;;;;;3.47;1.35;;;32.00;33.80;;;;;;4981121;28;20096;-79
2022/05/08 13:03:17;;;;;;;3.17;1.58;;;32.00;34.00;;;;;;4993416;28;20033;-79
2022/05/08 13:05:43;;;;;;;4.75;1.83;;;31.90;34.10;;;;;;4996557;28;20392;-79
2022/05/08 13:08:08;;;;;;;2.03;1.45;;;31.90;34.10;;;;;;5000409;28;20044;-80
2022/05/08 13:10:35;;;;;;;3.30;1.65;;;31.60;34.10;;;;;;5003014;28;20030;-80
2022/05/08 13:13:01;;;;;;;1.35;1.25;;;31.30;34.30;;;;;;5001426;28;20057;-79
2022/05/08 13:15:26;;;;;;;6.35;1.77;;;31.00;34.40;;;;;;4998575;28;20093;-80
2022/05/08 13:17:54;;;;;;;2.72;1.65;;;30.90;34.80;;;;;;4984027;28;20435;-80